Time;durP1;ratioP1;P1;durP2;ratioP2;P2;SDS_P1;SDS_P2;PMS_P1;PMS_P2;Temp;Humidity;BMP_temperature;BMP_pressure;BME280_temperature;BME280_humidity;BME280_pressure;Samples;Min_cycle;Max_cycle;Signal;HPM_P1;HPM_P2
2021/11/26 00:02:22;;;;;;;19.60;10.00;;;;;;;3.07;78.04;99229.11;106094;1323;22488;-63
2021/11/26 00:04:51;;;;;;;16.80;11.00;;;;;;;3.06;78.14;99219.77;106135;1320;23299;-63
2021/11/26 00:07:20;;;;;;;17.40;10.20;;;;;;;3.07;78.21;99214.86;105968;1319;138795;-63
2021/11/26 00:09:50;;;;;;;18.20;11.80;;;;;;;3.07;78.17;99219.00;106142;1318;22413;-63
2021/11/26 00:12:19;;;;;;;16.40;11.40;;;;;;;3.07;78.27;99213.45;105973;1319;138857;-63
2021/11/26 00:17:49;;;;;;;13.20;9.90;;;;;;;3.08;78.25;99208.85;105722;1318;138559;-63
2021/11/26 00:20:17;;;;;;;16.80;10.40;;;;;;;3.08;78.35;99212.41;105957;1324;22452;-63
2021/11/26 00:22:46;;;;;;;17.90;11.10;;;;;;;3.07;78.48;99212.88;106082;1318;22468;-63
2021/11/26 00:25:14;;;;;;;17.80;11.30;;;;;;;3.07;78.37;99206.99;106033;1323;137890;-63
2021/11/26 00:27:43;;;;;;;18.20;11.30;;;;;;;3.07;78.48;99202.77;106111;1318;23150;-63
2021/11/26 00:30:11;;;;;;;14.80;11.20;;;;;;;3.06;78.47;99195.38;105934;1319;137907;-63
2021/11/26 00:32:40;;;;;;;14.20;10.90;;;;;;;3.05;78.61;99195.86;106105;1319;22578;-64
2021/11/26 00:35:28;;;;;;;;;;;;;;;3.06;78.47;99189.11;106054;1319;138216;-63
2021/11/26 00:37:56;;;;;;;;;;;;;;;3.05;78.55;99180.02;106181;1319;23109;-63
2021/11/26 00:40:24;;;;;;;;;;;;;;;3.02;78.52;99171.77;106149;1319;23292;-60
2021/11/26 00:42:52;;;;;;;;;;;;;;;3.03;78.71;99176.59;106025;1319;124052;-61
2021/11/26 00:45:20;;;;;;;15.80;10.30;;;;;;;3.02;78.59;99174.09;106124;1319;22474;-61
2021/11/26 00:47:48;;;;;;;15.40;10.40;;;;;;;3.00;78.75;99175.39;105985;1319;141118;-60
2021/11/26 00:50:16;;;;;;;15.50;10.90;;;;;;;2.99;78.76;99170.88;106094;1318;23521;-61
2021/11/26 00:52:45;;;;;;;15.20;10.70;;;;;;;2.99;78.83;99166.83;106142;1318;23164;-61
2021/11/26 00:55:13;;;;;;;15.70;11.30;;;;;;;2.98;78.81;99162.35;105976;1318;138255;-61
2021/11/26 00:57:41;;;;;;;17.10;11.40;;;;;;;2.98;78.93;99156.05;106106;1319;22638;-60
2021/11/26 01:00:12;;;;;;;17.10;11.50;;;;;;;2.98;79.09;99150.27;105977;1319;137801;-61
2021/11/26 01:02:42;;;;;;;14.10;10.90;;;;;;;2.97;79.13;99142.98;106120;1319;22601;-61
2021/11/26 01:05:10;;;;;;;14.90;11.00;;;;;;;2.97;79.06;99134.38;105921;1318;139010;-61
2021/11/26 01:07:39;;;;;;;19.00;11.20;;;;;;;2.97;79.20;99134.37;106086;1319;22422;-61
2021/11/26 01:10:09;;;;;;;17.00;11.70;;;;;;;2.98;79.07;99134.29;106149;1318;22429;-61
2021/11/26 01:12:37;;;;;;;16.80;12.20;;;;;;;2.98;79.15;99133.74;106016;1322;137987;-61
2021/11/26 01:15:06;;;;;;;17.00;11.60;;;;;;;2.98;79.25;99140.00;106138;1318;22597;-60
2021/11/26 01:17:37;;;;;;;16.00;11.20;;;;;;;2.98;79.05;99137.14;105960;1318;140288;-61
2021/11/26 01:20:05;;;;;;;17.90;12.20;;;;;;;2.98;79.08;99127.13;106128;1319;22478;-61
2021/11/26 01:22:35;;;;;;;16.50;11.40;;;;;;;2.97;78.99;99124.30;105666;1323;23287;-61
2021/11/26 01:25:04;;;;;;;18.90;11.90;;;;;;;2.96;79.08;99127.50;105904;1319;140430;-61
2021/11/26 01:27:33;;;;;;;17.70;11.40;;;;;;;2.95;79.16;99122.45;105212;1319;22471;-61
2021/11/26 01:30:09;;;;;;;21.50;12.90;;;;;;;2.95;79.16;99113.39;105956;1318;139659;-61
2021/11/26 01:32:37;;;;;;;17.90;11.80;;;;;;;2.94;79.22;99101.60;106046;1319;22444;-61
2021/11/26 01:35:06;;;;;;;18.40;11.80;;;;;;;2.95;79.13;99102.27;106008;1319;138830;-61
2021/11/26 01:37:34;;;;;;;20.40;12.70;;;;;;;2.94;79.07;99105.73;106095;1318;23582;-61
2021/11/26 01:40:04;;;;;;;18.20;12.60;;;;;;;2.93;79.08;99108.06;104546;1318;26527;-55
2021/11/26 01:42:33;;;;;;;18.90;12.60;;;;;;;2.92;79.06;99110.05;105571;1324;138830;-56
2021/11/26 01:45:01;;;;;;;19.20;12.60;;;;;;;2.91;79.15;99111.23;106124;1323;22568;-55
2021/11/26 01:47:31;;;;;;;17.40;12.10;;;;;;;2.89;79.11;99115.09;105978;1324;138167;-55
2021/11/26 01:50:00;;;;;;;15.20;10.60;;;;;;;2.87;78.99;99111.31;106094;1319;22613;-56
2021/11/26 01:52:30;;;;;;;18.20;11.70;;;;;;;2.85;79.02;99107.77;106117;1319;22621;-55
2021/11/26 01:54:58;;;;;;;16.60;12.10;;;;;;;2.81;79.09;99099.39;105988;1318;138136;-55
2021/11/26 01:57:27;;;;;;;21.90;13.10;;;;;;;2.79;79.10;99102.95;106092;1319;22474;-56
2021/11/26 01:59:56;;;;;;;17.00;11.90;;;;;;;2.76;79.16;99100.57;105938;1319;138162;-55
2021/11/26 02:02:24;;;;;;;18.00;12.20;;;;;;;2.74;79.11;99103.15;106061;1318;23298;-55
2021/11/26 02:04:53;;;;;;;16.00;11.30;;;;;;;2.73;79.24;99104.63;106135;1319;22540;-55
2021/11/26 02:07:21;;;;;;;14.80;11.70;;;;;;;2.72;79.31;99103.23;105984;1318;138891;-55
2021/11/26 02:11:30;;;;;;;17.00;12.80;;;;;;;2.72;79.33;99094.20;99203;1356;560272;-53
2021/11/26 02:13:57;;;;;;;17.20;12.60;;;;;;;2.69;79.32;99097.16;101097;1328;25338;-54
2021/11/26 02:16:24;;;;;;;17.50;12.50;;;;;;;2.68;79.34;99093.89;100980;1333;24344;-54
2021/11/26 02:18:52;;;;;;;19.30;12.70;;;;;;;2.64;79.28;99092.63;105539;1322;137810;-55
2021/11/26 02:21:21;;;;;;;25.30;13.50;;;;;;;2.60;79.40;99093.52;105564;1327;23378;-55
2021/11/26 02:23:48;;;;;;;20.50;13.10;;;;;;;2.56;79.42;99097.25;105518;1322;209626;-55
2021/11/26 02:26:15;;;;;;;19.10;12.50;;;;;;;2.51;79.40;99102.36;105949;1325;23555;-55
2021/11/26 02:28:42;;;;;;;;;;;;;;;2.47;79.64;99095.54;105927;1321;23580;-56
2021/11/26 02:31:08;;;;;;;17.70;12.20;;;;;;;2.45;79.66;99093.23;105303;1322;124534;-55
2021/11/26 02:33:36;;;;;;;18.10;12.60;;;;;;;2.39;79.80;99088.41;105939;1319;22501;-55
2021/11/26 02:36:03;;;;;;;;;;;;;;;2.40;79.78;99092.14;105859;1318;137519;-55
2021/11/26 02:38:30;;;;;;;20.60;12.20;;;;;;;2.39;79.91;99096.35;106120;1319;22488;-55
2021/11/26 02:40:57;;;;;;;19.60;12.40;;;;;;;2.37;80.01;99089.08;106067;1319;23425;-55
2021/11/26 02:43:24;;;;;;;19.10;13.70;;;;;;;2.38;79.86;99087.27;105924;1319;137296;-55
2021/11/26 02:45:51;;;;;;;22.20;13.10;;;;;;;2.37;80.04;99086.98;105649;1324;22390;-55
2021/11/26 02:48:18;;;;;;;19.00;12.80;;;;;;;2.36;79.92;99084.62;106027;1320;138108;-55
2021/11/26 02:50:46;;;;;;;18.60;12.70;;;;;;;2.34;79.90;99084.99;106077;1318;22456;-55
2021/11/26 02:53:18;;;;;;;20.60;13.50;;;;;;;2.32;80.10;99090.02;106047;1318;141053;-55
2021/11/26 02:55:45;;;;;;;18.20;12.70;;;;;;;2.29;79.84;99090.63;106102;1318;22512;-56
2021/11/26 02:58:12;;;;;;;21.10;14.00;;;;;;;2.27;80.02;99083.77;105971;1321;23452;-55
2021/11/26 03:00:41;;;;;;;23.90;14.20;;;;;;;2.24;80.12;99085.64;105908;1318;137765;-55
2021/11/26 03:03:08;;;;;;;16.70;12.80;;;;;;;2.21;80.04;99091.40;106151;1318;22508;-55
2021/11/26 03:05:35;;;;;;;22.50;13.10;;;;;;;2.18;80.15;99090.71;106019;1318;138165;-55
2021/11/26 03:08:04;;;;;;;17.30;12.30;;;;;;;2.16;80.00;99086.44;106120;1319;22303;-55
2021/11/26 03:10:31;;;;;;;21.80;13.60;;;;;;;2.13;80.18;99086.98;106135;1319;22423;-55
2021/11/26 03:13:01;;;;;;;21.60;13.50;;;;;;;2.09;80.26;99082.49;106027;1320;137703;-55
2021/11/26 03:15:29;;;;;;;17.60;12.10;;;;;;;2.06;80.42;99075.77;105847;1319;22599;-55
2021/11/26 03:17:55;;;;;;;16.80;12.20;;;;;;;2.03;80.39;99073.14;106028;1318;137732;-55
2021/11/26 03:20:24;;;;;;;15.40;11.60;;;;;;;2.00;80.33;99070.06;106142;1318;22478;-55
2021/11/26 03:22:51;;;;;;;19.40;13.70;;;;;;;1.96;80.66;99059.12;106154;1318;22609;-55
2021/11/26 03:25:18;;;;;;;17.50;12.50;;;;;;;1.91;80.59;99056.15;105964;1320;139706;-55
2021/11/26 03:27:47;;;;;;;18.40;12.50;;;;;;;1.89;80.61;99053.48;106030;1319;22452;-55
2021/11/26 03:30:19;;;;;;;20.10;13.10;;;;;;;1.88;80.73;99068.90;106037;1318;139384;-55
2021/11/26 03:32:46;;;;;;;20.40;13.20;;;;;;;1.88;80.85;99073.73;106105;1318;23209;-56
2021/11/26 03:35:13;;;;;;;17.20;11.60;;;;;;;1.86;80.90;99074.91;106046;1318;138280;-56
2021/11/26 03:37:40;;;;;;;19.50;12.80;;;;;;;1.82;80.98;99069.35;105877;1318;22480;-55
2021/11/26 03:40:08;;;;;;;18.50;13.00;;;;;;;1.83;81.04;99073.14;106071;1320;22478;-60
2021/11/26 03:42:35;;;;;;;18.80;12.60;;;;;;;1.81;80.95;99072.66;106060;1316;138906;-60
2021/11/26 03:45:03;;;;;;;16.80;12.10;;;;;;;1.80;80.93;99078.90;106153;1319;22584;-60
2021/11/26 03:47:30;;;;;;;19.70;13.30;;;;;;;1.78;80.90;99072.83;106028;1318;138355;-60
2021/11/26 03:49:57;;;;;;;20.50;12.00;;;;;;;1.76;80.93;99074.69;106186;1316;22412;-60
2021/11/26 03:52:24;;;;;;;16.90;11.80;;;;;;;1.73;80.89;99071.03;106153;1316;22410;-60
2021/11/26 03:54:51;;;;;;;19.60;13.20;;;;;;;1.69;80.96;99071.09;106039;1316;138407;-61
2021/11/26 03:57:18;;;;;;;19.70;14.00;;;;;;;1.68;80.92;99070.23;106080;1318;22562;-60
2021/11/26 03:59:45;;;;;;;17.70;11.30;;;;;;;1.66;81.00;99071.55;106066;1319;138088;-60
2021/11/26 04:02:13;;;;;;;22.20;13.30;;;;;;;1.65;81.16;99066.52;106159;1316;23225;-60
2021/11/26 04:04:41;;;;;;;22.60;13.80;;;;;;;1.64;80.83;99062.67;106145;1316;22496;-60
2021/11/26 04:07:08;;;;;;;;;;;;;;;1.62;81.11;99066.44;106071;1316;138253;-61
2021/11/26 04:09:35;;;;;;;20.20;12.90;;;;;;;1.60;81.24;99068.00;106106;1316;22498;-60
2021/11/26 04:12:02;;;;;;;;;;;;;;;1.57;81.16;99067.21;106078;1318;141161;-60
2021/11/26 04:14:39;;;;;;;19.70;12.00;;;;;;;1.54;81.33;99063.17;105918;1316;22565;-60
2021/11/26 04:17:10;;;;;;;18.00;11.60;;;;;;;1.50;81.50;99057.31;106013;1316;138714;-60
2021/11/26 04:19:38;;;;;;;19.30;12.20;;;;;;;1.47;81.53;99058.22;106151;1318;23622;-60
2021/11/26 04:22:05;;;;;;;19.20;13.10;;;;;;;1.45;81.41;99060.01;106094;1318;22480;-60
2021/11/26 04:24:32;;;;;;;21.30;11.90;;;;;;;1.43;81.69;99056.72;106049;1317;137679;-60
2021/11/26 04:26:59;;;;;;;;;;;;;;;1.40;81.83;99058.83;106144;1321;23409;-60
2021/11/26 04:29:26;;;;;;;19.90;12.90;;;;;;;1.37;82.06;99057.75;106044;1316;124479;-60
2021/11/26 04:31:53;;;;;;;20.20;12.80;;;;;;;1.37;82.12;99056.94;106156;1316;23565;-60
2021/11/26 04:34:20;;;;;;;;;;;;;;;1.36;82.06;99063.29;106168;1316;22495;-60
2021/11/26 04:36:46;;;;;;;18.70;11.50;;;;;;;1.37;82.06;99059.98;105707;1316;124336;-60
2021/11/26 04:39:14;;;;;;;20.20;13.80;;;;;;;1.38;82.11;99060.56;106209;1318;22400;-59
2021/11/26 04:41:41;;;;;;;18.80;12.30;;;;;;;1.37;81.94;99058.66;106013;1316;138275;-60
2021/11/26 04:44:08;;;;;;;16.60;11.60;;;;;;;1.37;82.18;99061.27;106113;1320;22277;-60
2021/11/26 04:46:35;;;;;;;;;;;;;;;1.35;82.16;99060.98;105282;1319;22519;-60
2021/11/26 04:49:05;;;;;;;15.60;11.10;;;;;;;1.32;82.14;99054.37;106048;1316;124084;-60
2021/11/26 04:51:33;;;;;;;18.90;12.10;;;;;;;1.31;82.30;99049.29;106081;1318;22473;-60
2021/11/26 04:54:00;;;;;;;19.40;12.50;;;;;;;1.31;82.39;99046.23;106073;1316;137552;-60
2021/11/26 04:56:28;;;;;;;18.90;12.70;;;;;;;1.31;82.47;99047.06;106150;1316;22471;-60
2021/11/26 04:58:56;;;;;;;20.70;14.10;;;;;;;1.30;82.49;99050.65;106112;1318;22568;-61
2021/11/26 05:01:22;;;;;;;18.10;12.20;;;;;;;1.31;82.54;99047.60;105773;1316;139335;-60
2021/11/26 05:03:53;;;;;;;18.40;12.60;;;;;;;1.31;82.58;99049.25;106138;1320;22660;-60
2021/11/26 05:06:20;;;;;;;19.10;13.00;;;;;;;1.33;82.63;99053.38;105972;1317;137960;-60
2021/11/26 05:08:47;;;;;;;23.50;13.80;;;;;;;1.32;82.71;99057.02;106127;1318;22535;-60
2021/11/26 05:11:16;;;;;;;17.60;12.50;;;;;;;1.32;82.70;99064.57;105965;1318;138097;-61
2021/11/26 05:13:44;;;;;;;19.20;13.30;;;;;;;1.33;82.84;99064.83;106066;1318;22503;-61
2021/11/26 05:16:14;;;;;;;18.40;13.10;;;;;;;1.33;82.88;99060.93;106153;1316;22392;-60
2021/11/26 05:18:45;;;;;;;23.00;12.60;;;;;;;1.33;82.79;99059.90;105995;1316;141650;-58
2021/11/26 05:21:12;;;;;;;16.30;11.90;;;;;;;1.32;82.81;99055.23;106117;1316;22537;-60
2021/11/26 05:23:39;;;;;;;17.90;12.00;;;;;;;1.32;82.87;99052.96;105904;1318;139510;-59
2021/11/26 05:26:06;;;;;;;;;;;;;;;1.32;82.91;99049.50;106128;1316;22517;-59
2021/11/26 05:28:33;;;;;;;17.10;11.70;;;;;;;1.32;82.93;99044.88;106131;1317;23173;-59
2021/11/26 05:30:59;;;;;;;;;;;;;;;1.31;83.02;99039.52;106050;1316;138005;-59
2021/11/26 05:33:27;;;;;;;20.50;13.40;;;;;;;1.29;82.90;99033.59;106130;1316;22547;-59
2021/11/26 05:35:54;;;;;;;21.00;12.10;;;;;;;1.27;83.00;99029.46;105970;1318;137926;-59
2021/11/26 05:38:21;;;;;;;20.20;12.50;;;;;;;1.26;82.97;99034.30;105377;1317;22506;-59
2021/11/26 05:40:48;;;;;;;20.90;13.00;;;;;;;1.26;82.82;99041.23;106143;1316;22591;-59
2021/11/26 05:43:15;;;;;;;;;;;;;;;1.25;83.02;99045.94;106027;1316;137728;-59
2021/11/26 05:45:45;;;;;;;22.50;13.20;;;;;;;1.23;82.89;99040.78;106138;1318;22401;-59
2021/11/26 05:48:12;;;;;;;;;;;;;;;1.22;83.10;99047.34;105992;1316;138379;-59
2021/11/26 05:50:39;;;;;;;21.20;11.50;;;;;;;1.23;83.16;99050.15;106167;1316;22476;-59
2021/11/26 05:53:06;;;;;;;18.20;11.70;;;;;;;1.22;83.26;99041.27;106013;1318;138563;-59
2021/11/26 05:55:33;;;;;;;24.30;14.20;;;;;;;1.24;83.16;99046.98;106155;1318;22577;-59
2021/11/26 05:58:08;;;;;;;19.10;12.60;;;;;;;1.21;83.23;99040.77;106168;1318;24160;-59
2021/11/26 06:00:36;;;;;;;17.80;12.10;;;;;;;1.21;83.27;99046.77;106040;1317;138216;-59
2021/11/26 06:03:03;;;;;;;19.40;12.60;;;;;;;1.21;83.38;99050.40;106093;1318;22478;-59
2021/11/26 06:05:30;;;;;;;24.00;15.90;;;;;;;1.21;83.36;99039.83;105846;1318;138811;-58
2021/11/26 06:07:58;;;;;;;21.50;13.30;;;;;;;1.22;83.70;99042.96;106100;1318;22441;-58
2021/11/26 06:10:30;;;;;;;27.30;14.90;;;;;;;1.21;83.42;99040.83;106167;1316;22663;-59
2021/11/26 06:12:57;;;;;;;;;;;;;;;1.22;83.43;99039.34;106053;1316;138961;-59
2021/11/26 06:15:24;;;;;;;24.90;12.90;;;;;;;1.22;83.29;99034.84;106140;1316;22704;-58
2021/11/26 06:17:51;;;;;;;;;;;;;;;1.20;83.33;99037.44;106043;1315;138490;-59
2021/11/26 06:20:18;;;;;;;18.40;11.90;;;;;;;1.17;83.33;99038.80;106143;1316;22407;-59
2021/11/26 06:22:45;;;;;;;18.20;11.00;;;;;;;1.16;83.52;99035.76;106169;1316;22546;-58
2021/11/26 06:25:14;;;;;;;21.00;13.20;;;;;;;1.14;83.68;99037.23;106054;1315;138421;-58
2021/11/26 06:27:41;;;;;;;20.00;12.70;;;;;;;1.16;83.74;99047.63;106129;1316;23252;-59
2021/11/26 06:30:11;;;;;;;21.30;13.00;;;;;;;1.19;83.81;99060.23;105883;1316;138151;-58
2021/11/26 06:32:39;;;;;;;25.70;13.10;;;;;;;1.22;83.72;99063.65;106112;1316;23345;-58
2021/11/26 06:35:07;;;;;;;16.60;11.70;;;;;;;1.23;83.77;99064.19;106053;1317;138415;-59
2021/11/26 06:37:34;;;;;;;17.30;11.50;;;;;;;1.24;83.79;99054.94;105993;1318;22391;-61
2021/11/26 06:40:01;;;;;;;20.80;11.80;;;;;;;1.26;83.73;99051.55;106011;1318;23245;-59
2021/11/26 06:42:37;;;;;;;18.30;12.90;;;;;;;1.27;83.63;99052.63;106076;1316;138029;-58
2021/11/26 06:45:05;;;;;;;19.20;11.40;;;;;;;1.27;83.74;99057.58;106015;1318;22546;-58
2021/11/26 06:47:32;;;;;;;17.50;11.40;;;;;;;1.27;83.68;99056.67;106079;1318;138167;-59
2021/11/26 06:50:00;;;;;;;15.80;11.30;;;;;;;1.29;83.76;99063.52;106116;1318;22485;-59
2021/11/26 06:52:28;;;;;;;20.90;12.80;;;;;;;1.33;83.74;99061.39;106144;1316;22703;-59
2021/11/26 06:54:55;;;;;;;15.40;11.40;;;;;;;1.37;83.77;99053.83;106040;1317;138237;-59
2021/11/26 06:57:22;;;;;;;17.10;11.80;;;;;;;1.38;83.85;99055.81;106160;1316;22643;-58
2021/11/26 06:59:49;;;;;;;;;;;;;;;1.43;83.71;99059.04;106086;1318;139265;-59
2021/11/26 07:02:16;;;;;;;16.70;10.50;;;;;;;1.44;83.70;99059.39;105661;1316;22648;-58
2021/11/26 07:04:45;;;;;;;15.20;11.70;;;;;;;1.46;83.74;99057.64;106107;1318;22478;-58
2021/11/26 07:07:12;;;;;;;15.50;11.10;;;;;;;1.48;83.58;99056.44;106044;1319;138561;-59
2021/11/26 07:09:40;;;;;;;16.00;10.70;;;;;;;1.52;83.68;99049.50;106183;1318;22450;-59
2021/11/26 07:12:09;;;;;;;16.00;11.00;;;;;;;1.55;83.48;99043.55;105450;1318;138165;-58
2021/11/26 07:14:41;;;;;;;14.50;10.90;;;;;;;1.60;83.66;99045.61;106048;1317;23585;-58
2021/11/26 07:17:09;;;;;;;15.40;11.10;;;;;;;1.65;83.55;99043.50;105703;1318;139112;-59
2021/11/26 07:19:47;;;;;;;19.10;12.60;;;;;;;1.70;83.42;99037.42;106138;1316;22474;-58
2021/11/26 07:22:14;;;;;;;19.50;13.30;;;;;;;1.75;83.52;99035.98;106109;1318;22533;-58
2021/11/26 07:24:41;;;;;;;;;;;;;;;1.80;83.29;99034.68;106031;1318;138548;-59
2021/11/26 07:27:08;;;;;;;16.20;11.60;;;;;;;1.84;83.24;99034.84;106115;1316;22510;-60
2021/11/26 07:29:36;;;;;;;26.80;13.60;;;;;;;1.90;83.32;99043.89;106031;1317;138209;-59
2021/11/26 07:32:03;;;;;;;;;;;;;;;1.95;83.23;99045.61;106090;1317;22513;-58
2021/11/26 07:34:29;;;;;;;16.40;11.00;;;;;;;2.02;83.11;99040.74;106158;1316;23876;-58
2021/11/26 07:36:57;;;;;;;17.70;11.50;;;;;;;2.07;82.94;99038.35;105904;1318;139157;-58
2021/11/26 07:39:24;;;;;;;16.00;10.40;;;;;;;2.13;82.88;99043.73;106041;1318;23529;-58
2021/11/26 07:41:52;;;;;;;18.50;10.80;;;;;;;2.20;82.72;99048.57;105999;1317;137979;-58
2021/11/26 07:44:19;;;;;;;19.00;10.60;;;;;;;2.27;82.59;99047.96;106155;1318;22517;-58
2021/11/26 07:46:46;;;;;;;;;;;;;;;2.33;82.44;99039.31;106153;1316;22498;-58
2021/11/26 07:49:13;;;;;;;15.40;11.00;;;;;;;2.40;82.22;99038.95;106054;1318;124072;-58
2021/11/26 07:51:41;;;;;;;15.90;10.50;;;;;;;2.46;82.15;99036.25;105765;1318;22484;-58
2021/11/26 07:54:07;;;;;;;13.30;10.00;;;;;;;2.53;81.97;99027.81;106003;1318;138427;-58
2021/11/26 07:56:35;;;;;;;;;;;;;;;2.60;81.85;99030.73;105789;1316;22522;-58
2021/11/26 07:59:03;;;;;;;11.80;9.20;;;;;;;2.66;81.74;99029.23;106058;1318;22653;-58
2021/11/26 08:01:30;;;;;;;14.30;9.70;;;;;;;2.73;81.58;99033.93;106010;1316;138521;-58
2021/11/26 08:03:57;;;;;;;16.60;10.70;;;;;;;2.80;81.39;99042.23;106131;1318;22967;-58
2021/11/26 08:06:23;;;;;;;16.80;10.50;;;;;;;2.88;81.25;99039.36;106081;1319;138031;-58
2021/11/26 08:08:50;;;;;;;12.80;10.20;;;;;;;2.95;80.96;99049.47;106106;1318;22619;-58
2021/11/26 08:11:17;;;;;;;13.90;10.50;;;;;;;3.00;80.79;99053.00;106013;1318;138211;-60
2021/11/26 08:13:44;;;;;;;14.20;10.40;;;;;;;3.05;80.40;99054.84;105988;1318;23382;-58
2021/11/26 08:16:11;;;;;;;14.00;9.70;;;;;;;3.09;80.31;99050.73;105958;1318;22502;-59
2021/11/26 08:18:44;;;;;;;17.60;9.90;;;;;;;3.12;80.09;99057.48;105367;1321;138318;-60
2021/11/26 08:21:11;;;;;;;19.00;11.60;;;;;;;3.18;79.81;99060.45;106119;1317;22555;-58
2021/11/26 08:23:38;;;;;;;;;;;;;;;3.25;79.75;99063.62;106013;1318;139415;-59
2021/11/26 08:26:05;;;;;;;14.60;9.90;;;;;;;3.29;79.64;99062.38;106077;1318;22462;-58
2021/11/26 08:28:31;;;;;;;24.30;11.70;;;;;;;3.34;79.60;99056.30;106078;1319;23594;-59
2021/11/26 08:30:58;;;;;;;;;;;;;;;3.38;79.42;99048.83;106005;1318;138156;-58
2021/11/26 08:33:26;;;;;;;17.90;10.80;;;;;;;3.45;79.46;99046.63;106013;1318;22571;-58
2021/11/26 08:35:53;;;;;;;15.80;10.10;;;;;;;3.50;78.92;99047.73;106010;1318;138394;-59
2021/11/26 08:38:20;;;;;;;14.30;10.20;;;;;;;3.53;78.81;99037.42;106149;1318;22419;-59
2021/11/26 08:40:47;;;;;;;20.00;10.10;;;;;;;3.54;78.45;99039.85;103375;1318;25357;-53
2021/11/26 08:43:14;;;;;;;;;;;;;;;3.58;78.47;99042.27;105900;1316;138777;-54
2021/11/26 08:45:42;;;;;;;12.70;9.20;;;;;;;3.61;78.21;99035.23;106129;1316;22520;-54
2021/11/26 08:48:09;;;;;;;14.20;9.70;;;;;;;3.64;78.08;99029.62;106040;1316;137900;-54
2021/11/26 08:50:36;;;;;;;12.70;9.40;;;;;;;3.69;78.06;99019.63;106064;1318;22503;-54
2021/11/26 08:53:05;;;;;;;15.50;9.70;;;;;;;3.74;77.93;99019.52;106178;1316;22619;-54
2021/11/26 08:55:32;;;;;;;11.70;8.90;;;;;;;3.78;77.96;99014.08;106042;1316;137982;-55
2021/11/26 08:58:00;;;;;;;13.30;9.20;;;;;;;3.84;77.74;99014.52;106162;1316;22896;-54
2021/11/26 09:00:29;;;;;;;23.50;13.90;;;;;;;3.88;77.24;99001.44;106057;1318;139628;-54
2021/11/26 09:03:01;;;;;;;22.80;13.90;;;;;;;3.91;77.31;98992.55;106187;1316;22492;-55
2021/11/26 09:05:31;;;;;;;16.00;10.20;;;;;;;3.94;77.06;98986.68;105866;1318;138329;-54
2021/11/26 09:08:02;;;;;;;21.20;12.80;;;;;;;3.97;77.05;98990.79;106041;1318;22554;-55
2021/11/26 09:10:31;;;;;;;20.20;11.80;;;;;;;4.04;77.09;98990.20;106083;1317;22581;-55
2021/11/26 09:12:58;;;;;;;14.40;10.90;;;;;;;4.08;77.03;98984.66;106040;1318;139108;-54
2021/11/26 09:15:45;;;;;;;12.90;9.50;;;;;;;4.13;76.83;98978.70;106038;1319;22455;-55
2021/11/26 09:18:12;;;;;;;13.60;9.50;;;;;;;4.19;76.82;98977.83;106082;1319;137845;-55
2021/11/26 09:20:39;;;;;;;14.00;10.30;;;;;;;4.24;76.28;98982.55;106150;1318;22406;-55
2021/11/26 09:23:07;;;;;;;17.30;11.50;;;;;;;4.29;76.31;98977.06;106034;1318;23330;-55
2021/11/26 09:25:35;;;;;;;14.30;9.60;;;;;;;4.32;76.11;98966.48;106043;1316;138341;-55
2021/11/26 09:28:02;;;;;;;12.30;8.90;;;;;;;4.35;75.79;98969.06;106183;1321;23255;-55
2021/11/26 09:30:29;;;;;;;;;;;;;;;4.35;75.56;98962.17;105989;1316;138765;-55
2021/11/26 09:32:58;;;;;;;12.50;9.30;;;;;;;4.36;75.69;98958.05;106095;1318;22508;-55
2021/11/26 09:35:26;;;;;;;13.20;10.00;;;;;;;4.40;75.82;98957.13;106058;1316;138108;-55
2021/11/26 09:37:52;;;;;;;13.80;9.70;;;;;;;4.45;75.65;98954.39;106155;1318;23224;-55
2021/11/26 09:40:20;;;;;;;18.60;10.80;;;;;;;4.50;75.61;98949.36;104130;1316;24397;-53
2021/11/26 09:42:47;;;;;;;14.10;10.80;;;;;;;4.54;75.31;98937.98;105933;1320;138288;-55
2021/11/26 09:45:17;;;;;;;16.10;10.90;;;;;;;4.59;75.52;98930.04;106085;1322;22418;-55
2021/11/26 09:47:44;;;;;;;13.00;9.30;;;;;;;4.66;75.13;98919.91;105964;1318;138404;-55
2021/11/26 09:50:11;;;;;;;12.20;8.80;;;;;;;4.71;74.98;98922.86;105971;1317;22532;-55
2021/11/26 09:52:43;;;;;;;12.20;8.60;;;;;;;4.75;74.54;98913.67;106091;1318;22411;-55
2021/11/26 09:55:10;;;;;;;;;;;;;;;4.77;74.45;98901.38;105982;1318;138378;-55
2021/11/26 09:57:38;;;;;;;10.80;8.50;;;;;;;4.79;74.25;98891.70;106183;1318;22770;-55
2021/11/26 10:00:06;;;;;;;12.50;9.10;;;;;;;4.81;74.16;98879.45;106030;1316;138267;-55
2021/11/26 10:02:33;;;;;;;13.60;8.40;;;;;;;4.85;74.14;98877.30;106189;1318;22556;-55
2021/11/26 10:05:10;;;;;;;11.60;8.60;;;;;;;4.90;73.86;98878.54;106060;1318;22658;-55
2021/11/26 10:07:48;;;;;;;15.90;11.20;;;;;;;4.93;73.48;98882.47;106055;1318;138488;-54
2021/11/26 10:10:18;;;;;;;;;;;;;;;4.94;74.08;98875.59;106006;1318;22474;-54
2021/11/26 10:12:58;;;;;;;11.50;8.60;;;;;;;4.98;73.79;98877.89;106065;1318;124757;-54
2021/11/26 10:15:47;;;;;;;14.30;9.10;;;;;;;5.01;73.44;98875.55;105807;1316;22386;-55
2021/11/26 10:18:17;;;;;;;13.10;9.10;;;;;;;5.02;73.58;98866.80;105929;1318;138049;-54
2021/11/26 10:21:03;;;;;;;17.70;10.20;;;;;;;5.06;73.58;98876.01;106184;1316;22466;-54
2021/11/26 10:23:36;;;;;;;11.10;8.60;;;;;;;5.08;73.12;98876.48;106014;1316;138543;-55
2021/11/26 10:26:20;;;;;;;10.80;8.30;;;;;;;5.08;73.11;98872.05;105837;1316;441392;-54
2021/11/26 10:28:51;;;;;;;18.30;9.80;;;;;;;5.07;73.16;98864.29;106155;1316;23167;-55
2021/11/26 10:31:18;;;;;;;14.90;8.70;;;;;;;5.04;72.93;98857.14;105913;1319;138955;-55
2021/11/26 10:33:58;;;;;;;13.10;9.00;;;;;;;5.02;73.24;98860.49;106155;1316;22280;-55
2021/11/26 10:36:25;;;;;;;13.60;9.10;;;;;;;5.01;72.88;98861.72;106015;1319;138442;-54
2021/11/26 10:38:53;;;;;;;12.90;9.20;;;;;;;5.02;72.76;98869.72;106104;1318;22557;-55
2021/11/26 10:41:30;;;;;;;12.40;8.20;;;;;;;5.03;73.13;98870.99;105218;1318;139727;-54
2021/11/26 10:44:08;;;;;;;11.00;7.90;;;;;;;5.05;73.10;98866.00;106102;1318;22258;-55
2021/11/26 10:46:48;;;;;;;11.50;8.10;;;;;;;5.08;72.96;98871.34;106161;1318;22490;-54
2021/11/26 10:49:41;;;;;;;15.00;9.20;;;;;;;5.09;73.02;98873.96;106051;1317;137812;-54
2021/11/26 10:52:41;;;;;;;10.80;7.70;;;;;;;5.11;73.28;98870.65;106084;1318;23218;-54
2021/11/26 10:57:56;;;;;;;13.50;7.40;;;;;;;5.17;73.20;98861.87;106115;1316;22420;-54
2021/11/26 11:00:23;;;;;;;9.90;7.40;;;;;;;5.20;73.40;98855.29;105558;1316;138104;-54
2021/11/26 11:02:55;;;;;;;13.90;7.90;;;;;;;5.24;73.15;98856.45;105724;1319;22485;-57
2021/11/26 11:05:31;;;;;;;10.60;7.70;;;;;;;5.27;72.57;98844.85;105973;1316;138516;-54
2021/11/26 11:08:00;;;;;;;13.90;7.60;;;;;;;5.31;73.10;98837.80;106085;1316;22412;-55
2021/11/26 11:10:35;;;;;;;11.30;8.20;;;;;;;5.35;73.05;98827.06;106093;1318;22478;-54
2021/11/26 11:13:23;;;;;;;10.20;7.20;;;;;;;5.40;72.74;98828.40;106016;1317;139019;-54
2021/11/26 11:15:50;;;;;;;13.90;7.40;;;;;;;5.47;72.79;98834.91;106115;1316;22576;-54
2021/11/26 11:18:17;;;;;;;9.50;7.10;;;;;;;5.53;72.60;98831.83;106024;1318;138302;-55
2021/11/26 11:20:45;;;;;;;13.50;8.40;;;;;;;5.57;72.39;98826.35;106120;1316;22486;-55
2021/11/26 11:23:14;;;;;;;12.10;8.30;;;;;;;5.63;72.35;98830.50;106149;1316;22554;-55
2021/11/26 11:25:41;;;;;;;12.20;8.80;;;;;;;5.67;72.24;98828.20;106224;1315;137653;-54
2021/11/26 11:28:14;;;;;;;11.40;7.10;;;;;;;5.71;71.64;98830.75;106311;1315;22413;-55
2021/11/26 11:30:41;;;;;;;10.70;7.50;;;;;;;5.75;71.66;98834.66;106195;1313;138071;-55
2021/11/26 11:33:09;;;;;;;11.10;7.80;;;;;;;5.78;71.95;98835.02;106351;1315;23420;-54
2021/11/26 11:35:37;;;;;;;9.30;6.90;;;;;;;5.81;71.39;98831.41;106175;1315;138218;-55
2021/11/26 11:38:07;;;;;;;13.00;7.30;;;;;;;5.85;71.47;98824.89;106346;1315;23231;-55
2021/11/26 11:40:40;;;;;;;10.10;6.90;;;;;;;5.87;71.49;98820.89;106217;1316;22274;-55